createdAt,value
2022-09-20T00:00:25.276Z,2.38
2022-09-20T00:02:51.670Z,2.58
2022-09-20T00:05:18.210Z,2.65
2022-09-20T00:07:45.322Z,2.80
2022-09-20T00:10:11.880Z,3.00
2022-09-20T00:12:38.356Z,2.63
2022-09-20T00:15:05.642Z,2.20
2022-09-20T00:17:32.096Z,2.58
2022-09-20T00:19:58.633Z,2.47
2022-09-20T00:22:25.087Z,3.25
2022-09-20T00:24:51.516Z,2.28
2022-09-20T00:27:17.927Z,2.35
2022-09-20T00:29:44.295Z,2.60
2022-09-20T00:32:10.691Z,2.72
2022-09-20T00:34:55.768Z,2.95
2022-09-20T00:37:22.189Z,2.75
2022-09-20T00:39:48.601Z,2.45
2022-09-20T00:42:15.503Z,2.47
2022-09-20T00:44:51.163Z,2.20
2022-09-20T00:47:33.211Z,2.35
2022-09-20T00:50:13.916Z,2.22
2022-09-20T00:52:43.884Z,2.20
2022-09-20T00:55:10.863Z,2.60
2022-09-20T00:57:38.630Z,2.22
2022-09-20T01:00:08.139Z,2.15
2022-09-20T01:02:36.079Z,2.20
2022-09-20T01:05:02.611Z,2.45
2022-09-20T01:07:29.775Z,2.45
2022-09-20T01:09:56.147Z,2.60
2022-09-20T01:12:26.746Z,2.15
2022-09-20T01:14:53.851Z,2.60
2022-09-20T01:17:23.144Z,2.38
2022-09-20T01:20:05.998Z,2.35
2022-09-20T01:25:22.687Z,1.80
2022-09-20T01:27:50.866Z,2.22
2022-09-20T01:30:23.673Z,2.47
2022-09-20T01:33:05.213Z,2.35
2022-09-20T01:35:32.991Z,2.42
2022-09-20T01:38:13.512Z,2.05
2022-09-20T01:41:04.327Z,2.65
2022-09-20T01:43:41.188Z,2.30
2022-09-20T01:46:28.308Z,2.35
2022-09-20T01:49:16.753Z,2.30
2022-09-20T01:52:04.441Z,2.25
2022-09-20T01:54:49.567Z,2.40
2022-09-20T01:57:45.522Z,2.17
2022-09-20T02:00:24.391Z,2.05
2022-09-20T02:03:31.325Z,1.98
2022-09-20T02:06:12.981Z,2.15
2022-09-20T02:08:48.803Z,1.83
2022-09-20T02:11:42.111Z,2.05
2022-09-20T02:14:14.433Z,2.15
2022-09-20T02:16:47.504Z,2.28
2022-09-20T02:19:17.060Z,2.40
2022-09-20T02:22:02.565Z,1.70
2022-09-20T02:24:37.979Z,2.67
2022-09-20T02:27:36.870Z,2.20
2022-09-20T02:30:25.367Z,2.00
2022-09-20T02:33:11.298Z,2.25
2022-09-20T02:35:42.425Z,2.28
2022-09-20T02:38:33.364Z,2.10
2022-09-20T02:41:23.084Z,2.13
2022-09-20T02:44:14.247Z,2.00
2022-09-20T02:47:18.617Z,2.35
2022-09-20T02:50:18.064Z,2.30
2022-09-20T02:53:21.976Z,1.98
2022-09-20T02:56:19.255Z,1.88
2022-09-20T02:59:09.908Z,1.98
2022-09-20T03:01:47.913Z,1.80
2022-09-20T03:04:44.278Z,2.22
2022-09-20T03:07:30.089Z,2.20
2022-09-20T03:10:22.570Z,1.50
2022-09-20T03:13:04.266Z,1.70
2022-09-20T03:15:43.119Z,1.95
2022-09-20T03:18:17.938Z,1.85
2022-09-20T03:21:02.169Z,2.08
2022-09-20T03:23:52.816Z,1.60
2022-09-20T03:26:40.959Z,2.10
2022-09-20T03:29:20.996Z,2.00
2022-09-20T03:32:05.599Z,1.50
2022-09-20T03:34:55.309Z,2.00
2022-09-20T03:37:29.066Z,1.70
2022-09-20T03:40:07.643Z,2.17
2022-09-20T03:42:36.462Z,1.95
2022-09-20T03:45:37.168Z,2.05
2022-09-20T03:48:18.747Z,1.58
2022-09-20T03:51:35.337Z,1.85
2022-09-20T03:54:25.199Z,2.22
2022-09-20T03:56:54.522Z,1.92
2022-09-20T03:59:42.152Z,2.20
2022-09-20T04:02:22.131Z,1.60
2022-09-20T04:04:54.755Z,2.15
2022-09-20T04:10:13.782Z,2.33
2022-09-20T04:13:01.755Z,1.77
2022-09-20T04:15:44.287Z,1.90
2022-09-20T04:18:20.004Z,1.92
2022-09-20T04:20:50.471Z,2.17
2022-09-20T04:23:42.987Z,2.17
2022-09-20T04:26:09.562Z,2.00
2022-09-20T04:28:47.309Z,2.40
2022-09-20T04:31:37.523Z,1.80
2022-09-20T04:34:06.671Z,2.38
2022-09-20T04:36:49.729Z,2.33
2022-09-20T04:39:29.051Z,2.67
2022-09-20T04:42:23.430Z,1.52
2022-09-20T04:45:11.075Z,2.13
2022-09-20T04:48:04.331Z,2.45
2022-09-20T04:50:48.852Z,1.90
2022-09-20T04:53:34.132Z,1.95
2022-09-20T04:56:03.262Z,2.08
2022-09-20T04:58:56.717Z,2.58
2022-09-20T05:01:36.010Z,2.38
2022-09-20T05:04:12.711Z,2.35
2022-09-20T05:06:51.106Z,2.25
2022-09-20T05:09:44.888Z,3.33
2022-09-20T05:12:41.627Z,2.90
2022-09-20T05:15:39.160Z,3.80
2022-09-20T05:18:24.245Z,3.30
2022-09-20T05:21:03.531Z,3.85
2022-09-20T05:23:50.871Z,5.07
2022-09-20T05:26:54.715Z,3.42
2022-09-20T05:29:51.601Z,3.30
2022-09-20T05:32:24.336Z,3.55
2022-09-20T05:35:00.039Z,3.47
2022-09-20T05:37:39.903Z,3.38
2022-09-20T05:40:16.265Z,3.13
2022-09-20T05:43:11.980Z,3.80
2022-09-20T05:45:57.097Z,3.28
2022-09-20T05:48:37.648Z,3.30
2022-09-20T05:51:22.783Z,4.15
2022-09-20T05:54:20.663Z,2.85
2022-09-20T05:57:00.826Z,3.08
2022-09-20T06:00:02.130Z,3.33
2022-09-20T06:02:56.800Z,3.22
2022-09-20T06:05:46.792Z,2.50
2022-09-20T06:08:34.902Z,2.67
2022-09-20T06:11:13.608Z,2.90
2022-09-20T06:13:59.709Z,2.90
2022-09-20T06:16:33.880Z,2.92
2022-09-20T06:19:06.060Z,3.00
2022-09-20T06:21:46.850Z,3.08
2022-09-20T06:24:36.924Z,2.90
2022-09-20T06:27:17.384Z,3.00
2022-09-20T06:29:48.424Z,3.17
2022-09-20T06:32:18.445Z,2.95
2022-09-20T06:34:45.268Z,3.22
2022-09-20T06:37:55.861Z,2.95
2022-09-20T06:40:50.183Z,3.00
2022-09-20T06:43:17.004Z,3.40
2022-09-20T06:46:36.084Z,2.97
2022-09-20T06:49:03.410Z,3.05
2022-09-20T06:51:36.287Z,3.10
2022-09-20T06:54:03.555Z,2.95
2022-09-20T06:56:32.074Z,3.00
2022-09-20T06:58:58.500Z,2.70
2022-09-20T07:01:30.097Z,2.75
2022-09-20T07:03:58.591Z,2.92
2022-09-20T07:06:25.013Z,3.15
2022-09-20T07:08:51.366Z,2.53
2022-09-20T07:11:18.226Z,3.67
2022-09-20T07:13:45.521Z,3.30
2022-09-20T07:16:14.112Z,2.70
2022-09-20T07:18:41.325Z,3.22
2022-09-20T07:21:16.282Z,3.17
2022-09-20T07:23:45.719Z,3.05
2022-09-20T07:26:26.897Z,3.10
2022-09-20T07:28:53.628Z,3.28
2022-09-20T07:31:21.566Z,3.38
2022-09-20T07:33:47.980Z,3.45
2022-09-20T07:36:14.786Z,3.45
2022-09-20T07:38:41.972Z,3.60
2022-09-20T07:41:09.412Z,4.05
2022-09-20T07:43:35.966Z,3.45
2022-09-20T07:46:02.606Z,3.33
2022-09-20T07:48:34.302Z,4.07
2022-09-20T07:51:09.771Z,3.30
2022-09-20T07:53:37.071Z,3.80
2022-09-20T07:56:14.587Z,3.78
2022-09-20T07:58:42.359Z,3.78
2022-09-20T08:01:11.083Z,3.40
2022-09-20T08:03:37.810Z,3.95
2022-09-20T08:06:09.690Z,3.50
2022-09-20T08:08:37.859Z,3.47
2022-09-20T08:11:18.659Z,3.60
2022-09-20T08:16:39.275Z,4.55
2022-09-20T08:19:05.749Z,3.90
2022-09-20T08:21:33.726Z,3.60
2022-09-20T08:24:00.384Z,4.20
2022-09-20T08:26:28.374Z,3.67
2022-09-20T08:28:56.866Z,4.57
2022-09-20T08:31:25.784Z,3.60
2022-09-20T08:33:53.020Z,3.72
2022-09-20T08:36:22.027Z,3.28
2022-09-20T08:41:39.203Z,3.03
2022-09-20T08:44:17.801Z,2.58
2022-09-20T08:46:50.106Z,3.08
2022-09-20T08:49:26.223Z,3.13
2022-09-20T08:51:53.434Z,3.63
2022-09-20T08:54:19.881Z,3.72
2022-09-20T08:56:46.699Z,2.78
2022-09-20T08:59:19.926Z,3.05
2022-09-20T09:01:50.267Z,3.88
2022-09-20T09:04:17.732Z,3.25
2022-09-20T09:06:45.340Z,3.10
2022-09-20T09:09:19.632Z,2.78
2022-09-20T09:11:47.749Z,2.88
2022-09-20T09:14:52.356Z,2.47
2022-09-20T09:17:27.557Z,2.25
2022-09-20T09:19:56.531Z,2.42
2022-09-20T09:22:35.151Z,2.28
2022-09-20T09:25:10.367Z,2.20
2022-09-20T09:27:57.203Z,2.40
2022-09-20T09:30:43.933Z,2.15
2022-09-20T09:33:16.262Z,1.98
2022-09-20T09:35:44.010Z,1.45
2022-09-20T09:38:29.178Z,1.60
2022-09-20T09:41:00.940Z,1.33
2022-09-20T09:43:33.058Z,1.88
2022-09-20T09:46:21.422Z,2.20
2022-09-20T09:49:05.483Z,1.88
2022-09-20T09:51:33.345Z,1.35
2022-09-20T09:54:00.261Z,1.50
2022-09-20T09:56:47.224Z,2.25
2022-09-20T09:59:42.200Z,1.65
2022-09-20T10:02:14.531Z,1.48
2022-09-20T10:05:04.254Z,1.88
2022-09-20T10:08:04.634Z,1.75
2022-09-20T10:10:54.891Z,1.50
2022-09-20T10:13:49.192Z,1.80
2022-09-20T10:16:48.930Z,1.92
2022-09-20T10:19:24.728Z,1.85
2022-09-20T10:21:56.905Z,1.42
2022-09-20T10:24:38.667Z,1.25
2022-09-20T10:27:36.044Z,1.67
2022-09-20T10:30:09.974Z,1.40
2022-09-20T10:33:14.034Z,1.35
2022-09-20T10:35:49.837Z,1.40
2022-09-20T10:38:22.149Z,1.42
2022-09-20T10:41:26.443Z,1.35
2022-09-20T10:44:26.883Z,1.20
2022-09-20T10:46:59.533Z,1.27
2022-09-20T10:49:32.071Z,1.20
2022-09-20T10:55:16.622Z,0.73
2022-09-20T10:58:20.775Z,0.90
2022-09-20T11:01:06.124Z,1.10
2022-09-20T11:04:00.520Z,0.70
2022-09-20T11:06:48.542Z,0.70
2022-09-20T11:09:20.403Z,0.90
2022-09-20T11:11:54.644Z,0.90
2022-09-20T11:14:35.501Z,1.05
2022-09-20T11:17:09.423Z,0.90
2022-09-20T11:19:37.926Z,0.70
2022-09-20T11:22:21.789Z,0.90
2022-09-20T11:24:53.591Z,0.88
2022-09-20T11:27:35.765Z,0.98
2022-09-20T11:30:05.490Z,0.98
2022-09-20T11:32:36.682Z,1.00
2022-09-20T11:35:12.045Z,0.70
2022-09-20T11:37:43.299Z,0.70
2022-09-20T11:40:22.415Z,0.68
2022-09-20T11:42:50.153Z,0.90
2022-09-20T11:45:16.778Z,0.80
2022-09-20T11:47:54.986Z,0.90
2022-09-20T11:50:40.227Z,1.05
2022-09-20T11:53:48.032Z,0.75
2022-09-20T11:56:23.364Z,1.20
2022-09-20T11:58:52.067Z,0.85
2022-09-20T12:01:28.581Z,0.60
2022-09-20T12:04:31.947Z,0.80
2022-09-20T12:07:20.817Z,1.00
2022-09-20T12:09:58.983Z,0.90
2022-09-20T12:12:41.617Z,0.90
2022-09-20T12:17:49.648Z,0.82
2022-09-20T12:20:42.470Z,0.95
2022-09-20T12:26:13.383Z,0.80
2022-09-20T12:28:52.896Z,1.20
2022-09-20T12:31:19.842Z,0.90
2022-09-20T12:33:59.191Z,0.88
2022-09-20T12:36:27.550Z,0.70
2022-09-20T12:39:00.608Z,0.80
2022-09-20T12:41:28.880Z,0.80
2022-09-20T12:44:01.991Z,1.00
2022-09-20T12:46:42.282Z,0.82
2022-09-20T12:49:41.028Z,0.65
2022-09-20T12:52:50.121Z,0.80
2022-09-20T12:55:32.008Z,0.90
2022-09-20T12:58:05.363Z,0.93
2022-09-20T13:01:14.524Z,0.75
2022-09-20T13:03:48.900Z,0.75
2022-09-20T13:06:16.458Z,0.70
2022-09-20T13:08:59.790Z,0.80
2022-09-20T13:11:39.654Z,1.02
2022-09-20T13:14:06.933Z,0.80
2022-09-20T13:16:36.075Z,0.80
2022-09-20T13:19:06.757Z,0.80
2022-09-20T13:21:36.924Z,0.98
2022-09-20T13:24:04.470Z,0.80
2022-09-20T13:26:40.249Z,0.75
2022-09-20T13:29:09.696Z,0.80
2022-09-20T13:31:36.245Z,0.82
2022-09-20T13:34:13.353Z,0.93
2022-09-20T13:36:40.024Z,1.00
2022-09-20T13:39:06.635Z,1.13
2022-09-20T13:41:35.495Z,0.88
2022-09-20T13:44:02.107Z,0.98
2022-09-20T13:46:31.138Z,1.33
2022-09-20T13:49:15.841Z,1.20
2022-09-20T13:51:42.265Z,1.02
2022-09-20T13:54:30.371Z,1.30
2022-09-20T13:56:59.886Z,1.20
2022-09-20T13:59:31.751Z,1.00
2022-09-20T14:01:59.092Z,1.00
2022-09-20T14:04:27.494Z,1.10
2022-09-20T14:06:56.245Z,1.00
2022-09-20T14:09:33.272Z,1.63
2022-09-20T14:12:00.007Z,1.10
2022-09-20T14:14:27.536Z,1.58
2022-09-20T14:16:55.871Z,0.90
2022-09-20T14:19:27.393Z,1.17
2022-09-20T14:21:53.813Z,1.10
2022-09-20T14:24:32.944Z,1.20
2022-09-20T14:27:03.694Z,1.23
2022-09-20T14:29:39.975Z,1.48
2022-09-20T14:32:16.951Z,1.73
2022-09-20T14:35:06.624Z,1.23
2022-09-20T14:37:50.778Z,1.58
2022-09-20T14:40:23.606Z,1.63
2022-09-20T14:42:53.265Z,1.50
2022-09-20T14:45:29.436Z,1.20
2022-09-20T14:47:59.233Z,1.05
2022-09-20T14:50:37.046Z,1.20
2022-09-20T14:53:06.263Z,1.20
2022-09-20T14:55:37.374Z,1.25
2022-09-20T14:58:13.479Z,1.23
2022-09-20T15:00:48.376Z,1.40
2022-09-20T15:03:16.530Z,1.33
2022-09-20T15:05:47.933Z,1.35
2022-09-20T15:08:15.396Z,1.30
2022-09-20T15:10:41.792Z,1.20
2022-09-20T15:13:10.756Z,1.40
2022-09-20T15:15:37.493Z,1.13
2022-09-20T15:18:04.543Z,1.30
2022-09-20T15:20:30.929Z,1.17
2022-09-20T15:22:57.985Z,1.10
2022-09-20T15:25:24.569Z,1.00
2022-09-20T15:27:51.694Z,0.82
2022-09-20T15:30:19.707Z,1.20
2022-09-20T15:32:46.734Z,1.00
2022-09-20T15:35:14.256Z,1.10
2022-09-20T15:37:41.073Z,0.88
2022-09-20T15:40:08.724Z,1.00
2022-09-20T15:42:38.183Z,1.00
2022-09-20T15:45:13.744Z,1.05
2022-09-20T15:47:40.382Z,0.88
2022-09-20T15:50:10.820Z,1.30
2022-09-20T15:52:40.609Z,1.20
2022-09-20T15:55:08.261Z,1.60
2022-09-20T15:57:35.242Z,1.70
2022-09-20T16:00:01.792Z,1.33
2022-09-20T16:02:29.241Z,1.40
2022-09-20T16:04:55.876Z,1.40
2022-09-20T16:07:25.687Z,2.83
2022-09-20T16:09:55.891Z,1.75
2022-09-20T16:12:23.827Z,1.90
2022-09-20T16:14:50.459Z,1.20
2022-09-20T16:17:17.740Z,0.90
2022-09-20T16:19:48.535Z,1.23
2022-09-20T16:22:15.885Z,1.77
2022-09-20T16:24:42.346Z,1.70
2022-09-20T16:27:09.677Z,1.10
2022-09-20T16:29:36.082Z,0.90
2022-09-20T16:32:03.604Z,1.00
2022-09-20T16:34:34.806Z,0.70
2022-09-20T16:37:07.827Z,0.80
2022-09-20T16:39:34.712Z,0.80
2022-09-20T16:42:03.548Z,0.60
2022-09-20T16:44:34.636Z,0.80
2022-09-20T16:47:01.479Z,0.50
2022-09-20T16:49:28.674Z,0.90
2022-09-20T16:51:55.387Z,0.70
2022-09-20T16:54:21.883Z,1.10
2022-09-20T16:56:49.983Z,0.80
2022-09-20T16:59:19.123Z,1.08
2022-09-20T17:01:45.549Z,1.00
2022-09-20T17:04:16.781Z,1.45
2022-09-20T17:06:43.929Z,1.00
2022-09-20T17:09:11.061Z,1.20
2022-09-20T17:11:39.922Z,2.00
2022-09-20T17:14:06.773Z,13.85
2022-09-20T17:16:35.190Z,11.88
2022-09-20T17:19:05.782Z,6.97
2022-09-20T17:21:32.174Z,3.33
2022-09-20T17:23:59.561Z,2.53
2022-09-20T17:26:28.557Z,1.70
2022-09-20T17:28:56.400Z,1.08
2022-09-20T17:31:28.733Z,1.15
2022-09-20T17:33:55.718Z,1.45
2022-09-20T17:36:22.157Z,1.77
2022-09-20T17:38:53.681Z,1.20
2022-09-20T17:41:20.965Z,1.30
2022-09-20T17:43:48.063Z,1.08
2022-09-20T17:46:22.773Z,1.10
2022-09-20T17:48:55.633Z,0.88
2022-09-20T17:51:27.631Z,0.98
2022-09-20T17:53:55.907Z,1.45
2022-09-20T17:56:28.586Z,1.77
2022-09-20T17:58:56.703Z,2.17
2022-09-20T18:01:23.194Z,1.90
2022-09-20T18:03:50.079Z,1.58
2022-09-20T18:06:19.224Z,1.58
2022-09-20T18:08:49.466Z,1.85
2022-09-20T18:11:17.610Z,1.90
2022-09-20T18:13:44.171Z,1.52
2022-09-20T18:16:16.245Z,1.60
2022-09-20T18:18:43.678Z,1.58
2022-09-20T18:21:16.244Z,1.52
2022-09-20T18:26:24.197Z,1.75
2022-09-20T18:29:02.005Z,1.60
2022-09-20T18:31:35.931Z,1.67
2022-09-20T18:34:15.497Z,2.45
2022-09-20T18:36:42.039Z,1.77
2022-09-20T18:39:08.751Z,1.67
2022-09-20T18:41:37.572Z,2.10
2022-09-20T18:44:07.077Z,1.90
2022-09-20T18:46:37.889Z,2.13
2022-09-20T18:49:09.545Z,2.30
2022-09-20T18:51:39.707Z,2.10
2022-09-20T18:54:08.949Z,1.92
2022-09-20T18:56:36.508Z,1.77
2022-09-20T18:59:08.644Z,2.03
2022-09-20T19:01:50.564Z,1.60
2022-09-20T19:04:54.067Z,1.77
2022-09-20T19:07:39.435Z,1.40
2022-09-20T19:10:05.731Z,1.55
2022-09-20T19:12:40.538Z,1.40
2022-09-20T19:15:44.156Z,1.33
2022-09-20T19:18:48.915Z,1.40
2022-09-20T19:21:26.225Z,1.50
2022-09-20T19:24:03.239Z,1.40
2022-09-20T19:26:31.774Z,1.85
2022-09-20T19:29:00.130Z,1.48
2022-09-20T19:31:29.591Z,1.88
2022-09-20T19:33:57.451Z,1.55
2022-09-20T19:36:25.645Z,2.17
2022-09-20T19:39:04.568Z,1.77
2022-09-20T19:41:39.240Z,2.22
2022-09-20T19:44:08.690Z,2.70
2022-09-20T19:46:59.595Z,3.30
2022-09-20T19:49:31.308Z,2.42
2022-09-20T19:51:58.014Z,2.45
2022-09-20T19:54:24.683Z,2.58
2022-09-20T19:56:55.955Z,2.53
2022-09-20T19:59:24.466Z,2.67
2022-09-20T20:01:52.523Z,2.30
2022-09-20T20:04:19.915Z,2.83
2022-09-20T20:06:58.061Z,2.72
2022-09-20T20:09:27.273Z,2.50
2022-09-20T20:12:06.599Z,2.50
2022-09-20T20:15:10.824Z,2.80
2022-09-20T20:18:02.936Z,2.70
2022-09-20T20:20:43.858Z,2.80
2022-09-20T20:23:43.086Z,3.08
2022-09-20T20:26:17.188Z,3.20
2022-09-20T20:28:43.601Z,2.88
2022-09-20T20:31:12.291Z,2.75
2022-09-20T20:33:39.642Z,2.90
2022-09-20T20:36:09.262Z,2.92
2022-09-20T20:38:39.366Z,3.20
2022-09-20T20:41:11.061Z,3.05
2022-09-20T20:43:39.434Z,3.30
2022-09-20T20:46:08.078Z,3.03
2022-09-20T20:48:36.193Z,3.53
2022-09-20T20:51:11.644Z,2.95
2022-09-20T20:53:47.058Z,2.63
2022-09-20T20:56:28.497Z,3.05
2022-09-20T20:59:01.390Z,3.00
2022-09-20T21:01:32.248Z,3.22
2022-09-20T21:03:58.934Z,2.70
2022-09-20T21:06:27.812Z,2.47
2022-09-20T21:08:54.393Z,2.83
2022-09-20T21:11:29.100Z,3.67
2022-09-20T21:13:57.252Z,3.00
2022-09-20T21:16:29.546Z,3.17
2022-09-20T21:18:56.145Z,2.95
2022-09-20T21:21:30.724Z,2.95
2022-09-20T21:23:58.838Z,2.80
2022-09-20T21:26:26.396Z,3.10
2022-09-20T21:28:54.935Z,2.90
2022-09-20T21:31:22.411Z,3.42
2022-09-20T21:33:49.342Z,3.65
2022-09-20T21:36:18.732Z,3.40
2022-09-20T21:38:45.621Z,3.53
2022-09-20T21:41:15.956Z,3.70
2022-09-20T21:43:44.060Z,3.50
2022-09-20T21:46:17.673Z,3.95
2022-09-20T21:48:44.726Z,3.60
2022-09-20T21:51:13.678Z,3.72
2022-09-20T21:53:43.001Z,3.78
2022-09-20T21:56:14.106Z,3.58
2022-09-20T21:58:40.960Z,3.97
2022-09-20T22:01:13.937Z,4.22
2022-09-20T22:03:42.415Z,4.18
2022-09-20T22:06:13.906Z,4.10
2022-09-20T22:08:42.316Z,3.95
2022-09-20T22:11:14.831Z,4.20
2022-09-20T22:13:47.072Z,4.47
2022-09-20T22:16:22.846Z,3.10
2022-09-20T22:18:49.831Z,4.20
2022-09-20T22:21:18.896Z,4.32
2022-09-20T22:23:48.479Z,4.13
2022-09-20T22:26:16.757Z,4.03
2022-09-20T22:28:43.593Z,3.97
2022-09-20T22:31:15.402Z,3.60
2022-09-20T22:33:46.603Z,3.40
2022-09-20T22:36:15.471Z,3.30
2022-09-20T22:38:43.093Z,3.17
2022-09-20T22:41:10.077Z,3.28
2022-09-20T22:43:37.364Z,3.55
2022-09-20T22:46:11.518Z,2.90
2022-09-20T22:48:38.802Z,3.17
2022-09-20T22:51:12.835Z,3.22
2022-09-20T22:53:39.446Z,3.00
2022-09-20T22:56:10.879Z,3.25
2022-09-20T22:58:40.771Z,2.80
2022-09-20T23:01:19.026Z,3.28
2022-09-20T23:03:48.263Z,3.35
2022-09-20T23:06:17.273Z,2.83
2022-09-20T23:08:43.672Z,3.92
2022-09-20T23:11:10.347Z,3.42
2022-09-20T23:13:36.791Z,3.35
2022-09-20T23:16:18.642Z,2.92
2022-09-20T23:18:49.489Z,2.97
2022-09-20T23:21:16.978Z,2.75
2022-09-20T23:23:44.626Z,2.80
2022-09-20T23:26:17.065Z,2.90
2022-09-20T23:28:45.999Z,3.30
2022-09-20T23:31:14.257Z,3.78
2022-09-20T23:33:46.813Z,3.92
2022-09-20T23:38:39.698Z,4.40
2022-09-20T23:41:08.078Z,4.78
2022-09-20T23:43:35.727Z,4.28
2022-09-20T23:46:03.256Z,4.25
2022-09-20T23:48:30.031Z,4.38
2022-09-20T23:50:56.608Z,4.10
2022-09-20T23:53:23.738Z,4.13
2022-09-20T23:55:50.613Z,4.78
2022-09-20T23:58:17.010Z,4.22
